Terminal Aerodrome Forecast
Issued by NWS Charleston, WV

Current Version | Previous Version | Text Only | Print | Product List | Glossary Off
Versions: 1 2 3 4 5 6 7 8 9 10 11 12 13 14 15 16 17 18 19 20 21 22 23

824
FTUS41 KRLX 292339
TAFPKB
TAF
KPKB 292339Z 3000/3024 34009KT P6SM BKN200
     FM300300 VRB03KT P6SM BKN250
     FM300400 VRB03KT 6SM HZ BKN200
     FM300600 00000KT 3SM BR SCT003 BKN150
     FM301300 VRB03KT P6SM BKN080
     FM301700 16006KT P6SM OVC050
     FM302200 15006KT 6SM SHRA BR OVC030=

USA.gov is the U.S. government's official web portal to all federal, state and local government web resources and services.